sensor_id;sensor_type;location;lat;lon;timestamp;pressure;altitude;pressure_sealevel;temperature;humidity
78459;BME280;67753;42.684;23.330;2023-04-10T00:00:07;95088.72;;;9.90;89.44
78459;BME280;67753;42.684;23.330;2023-04-10T00:02:17;95087.00;;;9.82;89.05
78459;BME280;67753;42.684;23.330;2023-04-10T00:04:21;95091.13;;;9.95;88.93
78459;BME280;67753;42.684;23.330;2023-04-10T00:06:25;95085.09;;;9.83;88.54
78459;BME280;67753;42.684;23.330;2023-04-10T00:08:27;95087.72;;;9.79;88.34
78459;BME280;67753;42.684;23.330;2023-04-10T00:10:29;95087.53;;;9.72;87.64
78459;BME280;67753;42.684;23.330;2023-04-10T00:12:34;95087.00;;;9.82;88.67
78459;BME280;67753;42.684;23.330;2023-04-10T00:14:36;95083.13;;;9.80;88.37
78459;BME280;67753;42.684;23.330;2023-04-10T00:16:42;95077.34;;;9.93;87.79
78459;BME280;67753;42.684;23.330;2023-04-10T00:18:51;95082.50;;;9.86;87.10
78459;BME280;67753;42.684;23.330;2023-04-10T00:20:54;95076.81;;;9.72;87.71
78459;BME280;67753;42.684;23.330;2023-04-10T00:22:57;95072.44;;;9.80;86.68
78459;BME280;67753;42.684;23.330;2023-04-10T00:25:00;95079.56;;;9.91;86.77
78459;BME280;67753;42.684;23.330;2023-04-10T00:27:05;95075.00;;;9.92;85.22
78459;BME280;67753;42.684;23.330;2023-04-10T00:29:08;95074.75;;;9.81;83.84
78459;BME280;67753;42.684;23.330;2023-04-10T00:31:11;95066.47;;;9.86;81.57
78459;BME280;67753;42.684;23.330;2023-04-10T00:33:13;95060.53;;;9.61;80.45
78459;BME280;67753;42.684;23.330;2023-04-10T00:35:20;95075.44;;;9.78;78.83
78459;BME280;67753;42.684;23.330;2023-04-10T00:37:23;95069.84;;;9.67;77.18
78459;BME280;67753;42.684;23.330;2023-04-10T00:39:25;95073.28;;;9.84;76.34
78459;BME280;67753;42.684;23.330;2023-04-10T00:41:28;95076.66;;;9.81;74.73
78459;BME280;67753;42.684;23.330;2023-04-10T00:43:44;95064.41;;;9.80;73.24
78459;BME280;67753;42.684;23.330;2023-04-10T00:45:48;95063.97;;;9.62;70.54
78459;BME280;67753;42.684;23.330;2023-04-10T00:48:04;95065.00;;;9.73;72.58
78459;BME280;67753;42.684;23.330;2023-04-10T00:50:06;95066.13;;;9.72;72.26
78459;BME280;67753;42.684;23.330;2023-04-10T00:52:11;95069.94;;;9.71;72.13
78459;BME280;67753;42.684;23.330;2023-04-10T00:54:16;95063.97;;;9.62;72.75
78459;BME280;67753;42.684;23.330;2023-04-10T00:56:23;95060.25;;;9.82;72.75
78459;BME280;67753;42.684;23.330;2023-04-10T00:58:29;95075.28;;;9.71;72.33
78459;BME280;67753;42.684;23.330;2023-04-10T01:00:32;95058.78;;;9.69;73.78
78459;BME280;67753;42.684;23.330;2023-04-10T01:02:34;95061.22;;;9.74;75.00
78459;BME280;67753;42.684;23.330;2023-04-10T01:04:36;95059.47;;;9.82;76.39
78459;BME280;67753;42.684;23.330;2023-04-10T01:06:52;95049.38;;;9.75;77.38
78459;BME280;67753;42.684;23.330;2023-04-10T01:09:04;95051.69;;;9.92;78.41
78459;BME280;67753;42.684;23.330;2023-04-10T01:11:13;95049.13;;;9.80;81.16
78459;BME280;67753;42.684;23.330;2023-04-10T01:13:22;95048.06;;;9.85;82.87
78459;BME280;67753;42.684;23.330;2023-04-10T01:15:29;95047.72;;;9.86;84.20
78459;BME280;67753;42.684;23.330;2023-04-10T01:17:39;95047.31;;;9.84;85.62
78459;BME280;67753;42.684;23.330;2023-04-10T01:19:57;95049.38;;;9.75;86.73
78459;BME280;67753;42.684;23.330;2023-04-10T01:22:02;95051.63;;;9.89;87.51
78459;BME280;67753;42.684;23.330;2023-04-10T01:24:30;95041.78;;;9.77;87.97
78459;BME280;67753;42.684;23.330;2023-04-10T01:26:52;95048.06;;;9.85;88.21
78459;BME280;67753;42.684;23.330;2023-04-10T01:29:00;95042.81;;;9.88;88.88
78459;BME280;67753;42.684;23.330;2023-04-10T01:31:07;95041.41;;;9.94;89.14
78459;BME280;67753;42.684;23.330;2023-04-10T01:33:12;95036.69;;;9.72;89.99
78459;BME280;67753;42.684;23.330;2023-04-10T01:35:17;95035.03;;;9.83;90.01
78459;BME280;67753;42.684;23.330;2023-04-10T01:37:22;95039.53;;;9.79;90.13
78459;BME280;67753;42.684;23.330;2023-04-10T01:39:26;95041.44;;;9.79;90.19
78459;BME280;67753;42.684;23.330;2023-04-10T01:41:36;95053.88;;;9.71;90.42
78459;BME280;67753;42.684;23.330;2023-04-10T01:43:40;95040.22;;;9.76;90.64
78459;BME280;67753;42.684;23.330;2023-04-10T01:45:50;95039.44;;;9.76;91.08
78459;BME280;67753;42.684;23.330;2023-04-10T01:47:55;95046.13;;;9.66;91.25
78459;BME280;67753;42.684;23.330;2023-04-10T01:50:02;95053.19;;;9.74;91.17
78459;BME280;67753;42.684;23.330;2023-04-10T01:52:13;95047.84;;;9.74;91.74
78459;BME280;67753;42.684;23.330;2023-04-10T01:54:17;95039.81;;;9.74;91.79
78459;BME280;67753;42.684;23.330;2023-04-10T01:56:27;95048.66;;;9.78;92.22
78459;BME280;67753;42.684;23.330;2023-04-10T01:58:34;95052.75;;;9.72;92.39
78459;BME280;67753;42.684;23.330;2023-04-10T02:00:37;95048.00;;;9.81;92.22
78459;BME280;67753;42.684;23.330;2023-04-10T02:02:42;95058.00;;;9.84;91.69
78459;BME280;67753;42.684;23.330;2023-04-10T02:04:44;95045.50;;;9.72;91.85
78459;BME280;67753;42.684;23.330;2023-04-10T02:07:03;95051.34;;;9.78;90.97
78459;BME280;67753;42.684;23.330;2023-04-10T02:09:33;95049.06;;;9.61;91.33
78459;BME280;67753;42.684;23.330;2023-04-10T02:11:40;95038.16;;;9.85;90.24
78459;BME280;67753;42.684;23.330;2023-04-10T02:13:45;95039.97;;;9.81;90.49
78459;BME280;67753;42.684;23.330;2023-04-10T02:15:49;95028.84;;;9.79;90.05
78459;BME280;67753;42.684;23.330;2023-04-10T02:17:57;95027.53;;;9.89;89.93
78459;BME280;67753;42.684;23.330;2023-04-10T02:20:05;95022.63;;;9.75;89.60
78459;BME280;67753;42.684;23.330;2023-04-10T02:22:11;95018.03;;;9.76;89.14
78459;BME280;67753;42.684;23.330;2023-04-10T02:24:18;95016.16;;;9.76;89.24
78459;BME280;67753;42.684;23.330;2023-04-10T02:26:20;95011.41;;;9.54;90.46
78459;BME280;67753;42.684;23.330;2023-04-10T02:28:24;95010.22;;;9.51;90.79
78459;BME280;67753;42.684;23.330;2023-04-10T02:30:27;95006.66;;;9.63;90.34
78459;BME280;67753;42.684;23.330;2023-04-10T02:32:29;95012.28;;;9.58;90.44
78459;BME280;67753;42.684;23.330;2023-04-10T02:34:34;95012.72;;;9.44;90.57
78459;BME280;67753;42.684;23.330;2023-04-10T02:36:37;95010.81;;;9.44;90.61
78459;BME280;67753;42.684;23.330;2023-04-10T02:38:39;95006.59;;;9.43;90.74
78459;BME280;67753;42.684;23.330;2023-04-10T02:40:41;95002.19;;;9.19;91.26
78459;BME280;67753;42.684;23.330;2023-04-10T02:42:47;95005.56;;;9.32;91.18
78459;BME280;67753;42.684;23.330;2023-04-10T02:44:50;94997.63;;;9.36;90.48
78459;BME280;67753;42.684;23.330;2023-04-10T02:46:53;94991.94;;;9.37;90.92
78459;BME280;67753;42.684;23.330;2023-04-10T02:48:55;94998.66;;;9.31;90.30
78459;BME280;67753;42.684;23.330;2023-04-10T02:50:59;94992.47;;;9.27;90.87
78459;BME280;67753;42.684;23.330;2023-04-10T02:53:02;95000.03;;;9.25;91.67
78459;BME280;67753;42.684;23.330;2023-04-10T02:55:06;94987.03;;;9.24;92.47
78459;BME280;67753;42.684;23.330;2023-04-10T02:57:08;94990.28;;;9.17;93.38
78459;BME280;67753;42.684;23.330;2023-04-10T02:59:12;94986.41;;;9.30;93.86
78459;BME280;67753;42.684;23.330;2023-04-10T03:01:16;94981.78;;;9.27;93.97
78459;BME280;67753;42.684;23.330;2023-04-10T03:03:20;94983.66;;;9.11;94.77
78459;BME280;67753;42.684;23.330;2023-04-10T03:05:26;94990.38;;;9.05;95.39
78459;BME280;67753;42.684;23.330;2023-04-10T03:07:33;94985.19;;;8.96;95.79
78459;BME280;67753;42.684;23.330;2023-04-10T03:09:36;94985.28;;;9.00;96.77
78459;BME280;67753;42.684;23.330;2023-04-10T03:11:51;94981.75;;;8.95;97.15
78459;BME280;67753;42.684;23.330;2023-04-10T03:13:53;94984.38;;;8.80;97.49
78459;BME280;67753;42.684;23.330;2023-04-10T03:15:57;94987.16;;;8.83;96.86
78459;BME280;67753;42.684;23.330;2023-04-10T03:18:01;94988.03;;;8.87;97.17
78459;BME280;67753;42.684;23.330;2023-04-10T03:20:04;94987.81;;;8.64;97.84
78459;BME280;67753;42.684;23.330;2023-04-10T03:22:06;94980.66;;;8.68;98.19
78459;BME280;67753;42.684;23.330;2023-04-10T03:24:40;94991.50;;;8.60;98.18
78459;BME280;67753;42.684;23.330;2023-04-10T03:26:52;94985.66;;;8.70;98.73
78459;BME280;67753;42.684;23.330;2023-04-10T03:28:54;94986.94;;;8.60;99.27
78459;BME280;67753;42.684;23.330;2023-04-10T03:30:56;94992.84;;;8.66;99.06
78459;BME280;67753;42.684;23.330;2023-04-10T03:32:59;94989.22;;;8.46;99.76
78459;BME280;67753;42.684;23.330;2023-04-10T03:35:01;94995.31;;;8.59;99.18
78459;BME280;67753;42.684;23.330;2023-04-10T03:37:03;94989.31;;;8.50;99.36
78459;BME280;67753;42.684;23.330;2023-04-10T03:39:05;94992.00;;;8.50;99.41
78459;BME280;67753;42.684;23.330;2023-04-10T03:41:11;94996.66;;;8.53;99.50
78459;BME280;67753;42.684;23.330;2023-04-10T03:43:15;94995.59;;;8.41;100.00
78459;BME280;67753;42.684;23.330;2023-04-10T03:45:31;95002.56;;;8.46;100.00
78459;BME280;67753;42.684;23.330;2023-04-10T03:47:47;95002.50;;;8.42;100.00
78459;BME280;67753;42.684;23.330;2023-04-10T03:49:52;95000.94;;;8.41;100.00
78459;BME280;67753;42.684;23.330;2023-04-10T03:52:08;95003.38;;;8.34;100.00
78459;BME280;67753;42.684;23.330;2023-04-10T03:54:13;94998.50;;;8.36;100.00
78459;BME280;67753;42.684;23.330;2023-04-10T03:56:30;95006.06;;;8.34;100.00
78459;BME280;67753;42.684;23.330;2023-04-10T03:58:33;95005.41;;;8.25;100.00
78459;BME280;67753;42.684;23.330;2023-04-10T04:00:38;95008.97;;;8.29;100.00
78459;BME280;67753;42.684;23.330;2023-04-10T04:02:41;95012.75;;;8.28;100.00
78459;BME280;67753;42.684;23.330;2023-04-10T04:04:45;95006.06;;;8.34;100.00
78459;BME280;67753;42.684;23.330;2023-04-10T04:06:52;95007.41;;;8.28;100.00
78459;BME280;67753;42.684;23.330;2023-04-10T04:09:08;95010.41;;;8.27;100.00
78459;BME280;67753;42.684;23.330;2023-04-10T04:11:10;95014.41;;;8.33;100.00
78459;BME280;67753;42.684;23.330;2023-04-10T04:13:44;95018.88;;;8.29;100.00
78459;BME280;67753;42.684;23.330;2023-04-10T04:15:54;95022.53;;;8.36;100.00
78459;BME280;67753;42.684;23.330;2023-04-10T04:18:01;95022.06;;;8.34;100.00
78459;BME280;67753;42.684;23.330;2023-04-10T04:20:05;95020.72;;;8.40;100.00
78459;BME280;67753;42.684;23.330;2023-04-10T04:22:09;95022.06;;;8.34;100.00
78459;BME280;67753;42.684;23.330;2023-04-10T04:24:20;95019.84;;;8.36;100.00
78459;BME280;67753;42.684;23.330;2023-04-10T04:26:23;95013.94;;;8.43;100.00
78459;BME280;67753;42.684;23.330;2023-04-10T04:28:25;95021.81;;;8.52;100.00
78459;BME280;67753;42.684;23.330;2023-04-10T04:30:31;95014.63;;;8.68;100.00
78459;BME280;67753;42.684;23.330;2023-04-10T04:32:33;95021.72;;;8.76;100.00
78459;BME280;67753;42.684;23.330;2023-04-10T04:34:35;95024.03;;;8.78;100.00
78459;BME280;67753;42.684;23.330;2023-04-10T04:36:38;95018.44;;;8.83;100.00
78459;BME280;67753;42.684;23.330;2023-04-10T04:38:54;95022.59;;;8.80;100.00
78459;BME280;67753;42.684;23.330;2023-04-10T04:40:56;95021.25;;;8.74;100.00
78459;BME280;67753;42.684;23.330;2023-04-10T04:43:00;95030.94;;;8.79;100.00
78459;BME280;67753;42.684;23.330;2023-04-10T04:45:03;95030.63;;;8.96;100.00
78459;BME280;67753;42.684;23.330;2023-04-10T04:47:15;95028.97;;;8.91;100.00
78459;BME280;67753;42.684;23.330;2023-04-10T04:49:18;95040.03;;;9.06;100.00
78459;BME280;67753;42.684;23.330;2023-04-10T04:51:27;95035.47;;;9.06;100.00
78459;BME280;67753;42.684;23.330;2023-04-10T04:53:30;95040.97;;;8.98;100.00
78459;BME280;67753;42.684;23.330;2023-04-10T04:55:32;95041.69;;;9.10;100.00
78459;BME280;67753;42.684;23.330;2023-04-10T04:57:34;95039.53;;;9.16;100.00
78459;BME280;67753;42.684;23.330;2023-04-10T04:59:47;95042.91;;;9.29;100.00
78459;BME280;67753;42.684;23.330;2023-04-10T05:01:49;95047.91;;;9.14;100.00
78459;BME280;67753;42.684;23.330;2023-04-10T05:03:56;95047.38;;;9.09;100.00
78459;BME280;67753;42.684;23.330;2023-04-10T05:05:58;95049.03;;;9.29;100.00
78459;BME280;67753;42.684;23.330;2023-04-10T05:08:03;95052.84;;;9.28;100.00
78459;BME280;67753;42.684;23.330;2023-04-10T05:10:07;95050.25;;;9.32;100.00
78459;BME280;67753;42.684;23.330;2023-04-10T05:12:10;95050.00;;;9.37;100.00
78459;BME280;67753;42.684;23.330;2023-04-10T05:14:12;95048.44;;;9.36;100.00
78459;BME280;67753;42.684;23.330;2023-04-10T05:16:14;95044.03;;;9.43;99.10
78459;BME280;67753;42.684;23.330;2023-04-10T05:18:17;95055.78;;;9.39;98.35
78459;BME280;67753;42.684;23.330;2023-04-10T05:20:40;95048.53;;;9.39;98.50
78459;BME280;67753;42.684;23.330;2023-04-10T05:22:42;95049.56;;;9.51;98.39
78459;BME280;67753;42.684;23.330;2023-04-10T05:24:44;95053.53;;;9.57;97.12
78459;BME280;67753;42.684;23.330;2023-04-10T05:26:46;95048.97;;;9.57;95.62
78459;BME280;67753;42.684;23.330;2023-04-10T05:28:49;95042.84;;;9.57;96.11
78459;BME280;67753;42.684;23.330;2023-04-10T05:30:51;95057.59;;;9.66;95.37
78459;BME280;67753;42.684;23.330;2023-04-10T05:32:53;95053.63;;;9.60;95.84
78459;BME280;67753;42.684;23.330;2023-04-10T05:34:56;95050.59;;;9.62;95.67
78459;BME280;67753;42.684;23.330;2023-04-10T05:37:00;95051.38;;;9.62;95.05
78459;BME280;67753;42.684;23.330;2023-04-10T05:39:02;95051.63;;;9.73;94.03
78459;BME280;67753;42.684;23.330;2023-04-10T05:41:05;95043.84;;;9.68;93.60
78459;BME280;67753;42.684;23.330;2023-04-10T05:43:07;95054.28;;;9.73;92.86
78459;BME280;67753;42.684;23.330;2023-04-10T05:45:09;95049.38;;;9.75;91.98
78459;BME280;67753;42.684;23.330;2023-04-10T05:47:12;95058.09;;;9.72;92.97
78459;BME280;67753;42.684;23.330;2023-04-10T05:49:15;95060.63;;;9.65;92.33
78459;BME280;67753;42.684;23.330;2023-04-10T05:51:17;95054.72;;;9.75;91.85
78459;BME280;67753;42.684;23.330;2023-04-10T05:53:27;95065.00;;;9.73;90.51
78459;BME280;67753;42.684;23.330;2023-04-10T05:55:32;95064.81;;;9.82;90.50
78459;BME280;67753;42.684;23.330;2023-04-10T05:57:34;95058.78;;;9.85;90.62
78459;BME280;67753;42.684;23.330;2023-04-10T05:59:37;95064.53;;;10.03;89.70
78459;BME280;67753;42.684;23.330;2023-04-10T06:01:41;95069.56;;;9.88;89.03
78459;BME280;67753;42.684;23.330;2023-04-10T06:03:43;95062.56;;;9.99;88.54
78459;BME280;67753;42.684;23.330;2023-04-10T06:05:45;95070.59;;;9.99;89.12
78459;BME280;67753;42.684;23.330;2023-04-10T06:07:47;95071.75;;;10.18;87.82
78459;BME280;67753;42.684;23.330;2023-04-10T06:09:50;95069.84;;;10.34;86.24
78459;BME280;67753;42.684;23.330;2023-04-10T06:11:52;95064.25;;;10.59;84.61
78459;BME280;67753;42.684;23.330;2023-04-10T06:13:56;95071.00;;;10.91;83.44
78459;BME280;67753;42.684;23.330;2023-04-10T06:16:00;95071.56;;;10.81;83.09
78459;BME280;67753;42.684;23.330;2023-04-10T06:18:02;95071.28;;;10.86;82.67
78459;BME280;67753;42.684;23.330;2023-04-10T06:20:05;95058.53;;;10.80;82.24
78459;BME280;67753;42.684;23.330;2023-04-10T06:22:08;95061.19;;;10.99;82.22
78459;BME280;67753;42.684;23.330;2023-04-10T06:24:11;95067.03;;;11.05;81.50
78459;BME280;67753;42.684;23.330;2023-04-10T06:26:18;95062.47;;;11.28;80.42
78459;BME280;67753;42.684;23.330;2023-04-10T06:28:22;95066.03;;;11.13;80.93
78459;BME280;67753;42.684;23.330;2023-04-10T06:30:24;95064.19;;;11.17;80.43
78459;BME280;67753;42.684;23.330;2023-04-10T06:32:26;95062.91;;;11.30;80.11
78459;BME280;67753;42.684;23.330;2023-04-10T06:34:32;95063.06;;;11.18;80.24
78459;BME280;67753;42.684;23.330;2023-04-10T06:36:34;95058.19;;;11.23;79.98
78459;BME280;67753;42.684;23.330;2023-04-10T06:38:36;95063.31;;;11.32;79.81
78459;BME280;67753;42.684;23.330;2023-04-10T06:40:39;95065.56;;;11.76;78.13
78459;BME280;67753;42.684;23.330;2023-04-10T06:42:47;95073.22;;;11.74;77.03
78459;BME280;67753;42.684;23.330;2023-04-10T06:44:49;95075.69;;;11.83;76.48
78459;BME280;67753;42.684;23.330;2023-04-10T06:46:52;95071.91;;;11.64;76.11
78459;BME280;67753;42.684;23.330;2023-04-10T06:48:54;95076.16;;;11.65;76.44
78459;BME280;67753;42.684;23.330;2023-04-10T06:50:56;95086.09;;;12.11;75.32
78459;BME280;67753;42.684;23.330;2023-04-10T06:52:59;95075.25;;;12.03;74.92
78459;BME280;67753;42.684;23.330;2023-04-10T06:55:02;95079.50;;;12.05;75.16
78459;BME280;67753;42.684;23.330;2023-04-10T06:57:05;95088.34;;;12.09;74.67
78459;BME280;67753;42.684;23.330;2023-04-10T06:59:10;95083.28;;;12.03;73.86
78459;BME280;67753;42.684;23.330;2023-04-10T07:01:13;95083.81;;;12.13;73.22
78459;BME280;67753;42.684;23.330;2023-04-10T07:03:16;95083.28;;;12.03;73.92
78459;BME280;67753;42.684;23.330;2023-04-10T07:05:19;95083.31;;;12.30;73.26
78459;BME280;67753;42.684;23.330;2023-04-10T07:07:21;95076.59;;;12.43;73.19
78459;BME280;67753;42.684;23.330;2023-04-10T07:09:28;95083.69;;;12.59;72.71
78459;BME280;67753;42.684;23.330;2023-04-10T07:11:31;95080.03;;;12.74;71.96
78459;BME280;67753;42.684;23.330;2023-04-10T07:13:33;95074.09;;;12.91;71.43
78459;BME280;67753;42.684;23.330;2023-04-10T07:15:39;95082.00;;;12.77;71.23
78459;BME280;67753;42.684;23.330;2023-04-10T07:17:43;95078.84;;;12.41;71.45
78459;BME280;67753;42.684;23.330;2023-04-10T07:19:45;95076.63;;;12.77;71.46
78459;BME280;67753;42.684;23.330;2023-04-10T07:21:47;95076.13;;;12.68;71.14
78459;BME280;67753;42.684;23.330;2023-04-10T07:23:52;95081.78;;;12.89;69.88
78459;BME280;67753;42.684;23.330;2023-04-10T07:25:53;95084.69;;;12.77;70.33
78459;BME280;67753;42.684;23.330;2023-04-10T07:27:55;95083.88;;;12.73;71.01
78459;BME280;67753;42.684;23.330;2023-04-10T07:29:58;95080.22;;;12.88;70.46
78459;BME280;67753;42.684;23.330;2023-04-10T07:32:01;95085.59;;;12.88;70.09
78459;BME280;67753;42.684;23.330;2023-04-10T07:34:03;95090.19;;;12.88;71.09
78459;BME280;67753;42.684;23.330;2023-04-10T07:36:07;95093.34;;;12.93;69.71
78459;BME280;67753;42.684;23.330;2023-04-10T07:38:10;95094.16;;;13.31;68.90
78459;BME280;67753;42.684;23.330;2023-04-10T07:40:13;95094.06;;;13.58;67.48
78459;BME280;67753;42.684;23.330;2023-04-10T07:42:15;95090.25;;;13.62;66.28
78459;BME280;67753;42.684;23.330;2023-04-10T07:44:17;95086.84;;;14.17;65.55
78459;BME280;67753;42.684;23.330;2023-04-10T07:46:20;95096.56;;;14.32;65.05
78459;BME280;67753;42.684;23.330;2023-04-10T07:48:23;95088.28;;;14.03;64.10
78459;BME280;67753;42.684;23.330;2023-04-10T07:50:25;95093.88;;;14.32;63.72
78459;BME280;67753;42.684;23.330;2023-04-10T07:52:27;95096.50;;;14.83;62.65
78459;BME280;67753;42.684;23.330;2023-04-10T07:54:30;95091.97;;;15.05;62.23
78459;BME280;67753;42.684;23.330;2023-04-10T07:56:32;95094.91;;;14.68;62.05
78459;BME280;67753;42.684;23.330;2023-04-10T07:58:34;95090.66;;;14.71;61.69
78459;BME280;67753;42.684;23.330;2023-04-10T08:00:36;95096.84;;;14.75;62.21
78459;BME280;67753;42.684;23.330;2023-04-10T08:02:38;95092.56;;;14.67;61.62
78459;BME280;67753;42.684;23.330;2023-04-10T08:04:43;95092.34;;;14.97;61.83
78459;BME280;67753;42.684;23.330;2023-04-10T08:06:45;95090.34;;;14.90;62.00
78459;BME280;67753;42.684;23.330;2023-04-10T08:08:48;95080.91;;;14.48;62.21
78459;BME280;67753;42.684;23.330;2023-04-10T08:10:51;95090.47;;;14.42;62.06
78459;BME280;67753;42.684;23.330;2023-04-10T08:12:53;95090.06;;;14.37;62.92
78459;BME280;67753;42.684;23.330;2023-04-10T08:15:10;95092.25;;;14.79;62.76
78459;BME280;67753;42.684;23.330;2023-04-10T08:17:17;95089.13;;;14.70;61.95
78459;BME280;67753;42.684;23.330;2023-04-10T08:19:19;95091.75;;;14.55;64.05
78459;BME280;67753;42.684;23.330;2023-04-10T08:21:24;95083.84;;;14.29;61.26
78459;BME280;67753;42.684;23.330;2023-04-10T08:23:40;95085.47;;;14.44;61.67
78459;BME280;67753;42.684;23.330;2023-04-10T08:25:42;95089.44;;;14.57;62.97
78459;BME280;67753;42.684;23.330;2023-04-10T08:27:45;95091.19;;;15.05;61.19
78459;BME280;67753;42.684;23.330;2023-04-10T08:29:51;95095.09;;;15.18;61.48
78459;BME280;67753;42.684;23.330;2023-04-10T08:31:53;95087.16;;;14.67;61.23
78459;BME280;67753;42.684;23.330;2023-04-10T08:33:55;95087.28;;;14.95;60.81
78459;BME280;67753;42.684;23.330;2023-04-10T08:35:57;95093.16;;;14.42;60.90
78459;BME280;67753;42.684;23.330;2023-04-10T08:38:00;95079.91;;;14.16;61.98
78459;BME280;67753;42.684;23.330;2023-04-10T08:40:02;95092.81;;;14.47;60.84
78459;BME280;67753;42.684;23.330;2023-04-10T08:42:05;95081.09;;;14.22;61.04
78459;BME280;67753;42.684;23.330;2023-04-10T08:44:08;95080.28;;;14.73;60.21
78459;BME280;67753;42.684;23.330;2023-04-10T08:46:11;95085.56;;;14.51;60.15
78459;BME280;67753;42.684;23.330;2023-04-10T08:48:15;95079.13;;;14.74;61.06
78459;BME280;67753;42.684;23.330;2023-04-10T08:50:19;95078.88;;;15.07;60.25
78459;BME280;67753;42.684;23.330;2023-04-10T08:52:24;95083.09;;;15.08;58.47
78459;BME280;67753;42.684;23.330;2023-04-10T08:54:29;95085.41;;;15.10;57.78
78459;BME280;67753;42.684;23.330;2023-04-10T08:56:34;95078.09;;;15.03;58.35
78459;BME280;67753;42.684;23.330;2023-04-10T08:58:38;95076.56;;;15.09;59.07
78459;BME280;67753;42.684;23.330;2023-04-10T09:00:40;95081.22;;;15.23;59.34
78459;BME280;67753;42.684;23.330;2023-04-10T09:02:42;95070.78;;;15.15;59.38
78459;BME280;67753;42.684;23.330;2023-04-10T09:04:47;95071.19;;;15.17;57.72
78459;BME280;67753;42.684;23.330;2023-04-10T09:06:51;95071.16;;;15.13;58.37
78459;BME280;67753;42.684;23.330;2023-04-10T09:08:53;95073.16;;;15.34;58.38
78459;BME280;67753;42.684;23.330;2023-04-10T09:10:57;95067.38;;;15.32;57.71
78459;BME280;67753;42.684;23.330;2023-04-10T09:12:58;95067.06;;;15.66;57.70
78459;BME280;67753;42.684;23.330;2023-04-10T09:15:00;95067.47;;;15.89;57.34
78459;BME280;67753;42.684;23.330;2023-04-10T09:17:15;95065.88;;;15.56;56.10
78459;BME280;67753;42.684;23.330;2023-04-10T09:19:29;95073.66;;;15.72;54.38
78459;BME280;67753;42.684;23.330;2023-04-10T09:21:31;95062.81;;;15.79;54.42
78459;BME280;67753;42.684;23.330;2023-04-10T09:23:33;95062.00;;;15.53;53.87
78459;BME280;67753;42.684;23.330;2023-04-10T09:25:36;95065.06;;;15.38;54.44
78459;BME280;67753;42.684;23.330;2023-04-10T09:27:42;95063.59;;;15.90;54.08
78459;BME280;67753;42.684;23.330;2023-04-10T09:29:45;95064.34;;;15.58;52.55
78459;BME280;67753;42.684;23.330;2023-04-10T09:31:49;95066.91;;;15.08;53.45
78459;BME280;67753;42.684;23.330;2023-04-10T09:34:06;95059.22;;;15.14;53.97
78459;BME280;67753;42.684;23.330;2023-04-10T09:36:12;95065.75;;;15.09;53.92
78459;BME280;67753;42.684;23.330;2023-04-10T09:38:15;95060.25;;;14.77;54.85
78459;BME280;67753;42.684;23.330;2023-04-10T09:40:21;95055.44;;;14.46;55.46
78459;BME280;67753;42.684;23.330;2023-04-10T09:42:29;95052.56;;;14.83;55.06
78459;BME280;67753;42.684;23.330;2023-04-10T09:44:35;95055.06;;;15.45;54.15
78459;BME280;67753;42.684;23.330;2023-04-10T09:46:37;95060.53;;;15.95;52.74
78459;BME280;67753;42.684;23.330;2023-04-10T09:48:53;95056.56;;;16.53;51.58
78459;BME280;67753;42.684;23.330;2023-04-10T09:50:56;95052.78;;;16.19;52.19
78459;BME280;67753;42.684;23.330;2023-04-10T09:52:58;95057.81;;;15.95;52.60
78459;BME280;67753;42.684;23.330;2023-04-10T09:55:02;95055.88;;;15.92;52.45
78459;BME280;67753;42.684;23.330;2023-04-10T09:57:05;95058.19;;;15.76;51.84
78459;BME280;67753;42.684;23.330;2023-04-10T09:59:08;95051.22;;;16.03;51.77
78459;BME280;67753;42.684;23.330;2023-04-10T10:01:12;95058.13;;;16.36;51.11
78459;BME280;67753;42.684;23.330;2023-04-10T10:03:17;95052.66;;;16.69;50.44
78459;BME280;67753;42.684;23.330;2023-04-10T10:05:25;95053.38;;;16.94;49.16
78459;BME280;67753;42.684;23.330;2023-04-10T10:07:30;95051.84;;;16.86;49.47
78459;BME280;67753;42.684;23.330;2023-04-10T10:09:35;95047.84;;;17.16;48.94
78459;BME280;67753;42.684;23.330;2023-04-10T10:11:37;95040.44;;;17.27;48.74
78459;BME280;67753;42.684;23.330;2023-04-10T10:13:45;95044.78;;;17.73;47.96
78459;BME280;67753;42.684;23.330;2023-04-10T10:15:57;95045.97;;;17.75;47.81
78459;BME280;67753;42.684;23.330;2023-04-10T10:18:24;95035.09;;;17.79;46.84
78459;BME280;67753;42.684;23.330;2023-04-10T10:20:30;95039.28;;;17.28;48.21
78459;BME280;67753;42.684;23.330;2023-04-10T10:22:34;95032.00;;;17.18;48.09
78459;BME280;67753;42.684;23.330;2023-04-10T10:24:38;95027.84;;;16.95;48.48
78459;BME280;67753;42.684;23.330;2023-04-10T10:26:41;95027.78;;;17.06;48.88
78459;BME280;67753;42.684;23.330;2023-04-10T10:28:45;95027.03;;;16.98;48.90
78459;BME280;67753;42.684;23.330;2023-04-10T10:30:48;95025.28;;;16.42;49.44
78459;BME280;67753;42.684;23.330;2023-04-10T10:32:50;95022.28;;;15.93;50.76
78459;BME280;67753;42.684;23.330;2023-04-10T10:34:54;95021.53;;;15.68;51.71
78459;BME280;67753;42.684;23.330;2023-04-10T10:36:58;95026.84;;;16.32;50.70
78459;BME280;67753;42.684;23.330;2023-04-10T10:39:13;95006.25;;;16.81;49.14
78459;BME280;67753;42.684;23.330;2023-04-10T10:41:23;95005.50;;;16.77;49.44
78459;BME280;67753;42.684;23.330;2023-04-10T10:43:34;95005.44;;;16.91;49.45
78459;BME280;67753;42.684;23.330;2023-04-10T10:45:49;95003.88;;;16.90;49.01
78459;BME280;67753;42.684;23.330;2023-04-10T10:47:53;95004.03;;;16.44;50.85
78459;BME280;67753;42.684;23.330;2023-04-10T10:49:58;95001.38;;;16.26;50.68
78459;BME280;67753;42.684;23.330;2023-04-10T10:52:01;94994.88;;;15.91;50.68
78459;BME280;67753;42.684;23.330;2023-04-10T10:54:02;95004.13;;;15.47;51.49
78459;BME280;67753;42.684;23.330;2023-04-10T10:56:33;95002.59;;;15.89;50.95
78459;BME280;67753;42.684;23.330;2023-04-10T10:58:54;94999.50;;;15.94;51.22